Time;durP1;ratioP1;P1;durP2;ratioP2;P2;SDS_P1;SDS_P2;PMS_P1;PMS_P2;Temp;Humidity;BMP_temperature;BMP_pressure;BME280_temperature;BME280_humidity;BME280_pressure;Samples;Min_cycle;Max_cycle;Signal;HPM_P1;HPM_P2
2023/03/27 00:00:44;;;;;;;5.90;1.37;;;;;;;-144.73;70.27;54444.66;4974433;28;20034;-71
2023/03/27 00:03:12;;;;;;;16.73;2.43;;;;;;;-144.73;70.78;54473.38;4992720;28;20026;-71
2023/03/27 00:05:38;;;;;;;14.03;2.20;;;;;;;-144.73;71.89;54452.84;4973878;28;20034;-71
2023/03/27 00:08:04;;;;;;;11.37;2.23;;;;;;;-144.73;72.07;54461.06;4989989;28;20017;-71
2023/03/27 00:10:31;;;;;;;19.23;2.73;;;;;;;-144.73;72.04;54407.69;4990092;28;20030;-72
2023/03/27 00:12:57;;;;;;;16.70;2.50;;;;;;;-144.73;72.10;54473.38;4991907;28;20397;-71
2023/03/27 00:15:23;;;;;;;21.40;2.23;;;;;;;-144.73;72.55;54469.28;4980623;28;20057;-71
2023/03/27 00:17:51;;;;;;;21.27;2.37;;;;;;;-144.73;73.16;54522.63;4990610;28;20041;-71
2023/03/27 00:20:21;;;;;;;14.10;2.23;;;;;;;-144.73;73.76;54463.13;4989431;28;20041;-72
2023/03/27 00:22:54;;;;;;;5.60;1.43;;;;;;;-144.73;73.92;54485.69;4973403;28;20023;-71
2023/03/27 00:25:21;;;;;;;23.57;2.20;;;;;;;-144.73;74.65;54434.38;4972352;28;20026;-71
2023/03/27 00:27:47;;;;;;;11.80;1.97;;;;;;;-144.73;75.51;54456.97;4988609;28;20493;-71
2023/03/27 00:30:13;;;;;;;15.17;2.30;;;;;;;-144.73;75.42;54506.22;4972369;28;20025;-71
2023/03/27 00:32:39;;;;;;;13.93;2.57;;;;;;;-144.73;75.54;54485.69;4987998;28;20339;-71
2023/03/27 00:35:06;;;;;;;7.23;2.67;;;;;;;-144.73;75.28;54452.84;4972376;28;20026;-71
2023/03/27 00:37:31;;;;;;;9.87;1.60;;;;;;;-144.73;75.37;54504.16;4990389;28;20030;-71
2023/03/27 00:39:57;;;;;;;14.53;2.17;;;;;;;-144.73;75.56;54477.47;4988827;28;20101;-71
2023/03/27 00:42:23;;;;;;;12.67;2.20;;;;;;;-144.73;75.59;54436.44;4988457;28;20037;-72
2023/03/27 00:44:50;;;;;;;13.57;1.20;;;;;;;-144.73;75.56;54461.06;4989081;28;20112;-71
2023/03/27 00:47:19;;;;;;;18.23;2.00;;;;;;;-144.73;75.44;54506.22;4974116;28;20118;-71
2023/03/27 00:49:46;;;;;;;9.80;1.80;;;;;;;-144.73;75.73;54452.84;4972335;28;20010;-71
2023/03/27 00:52:15;;;;;;;11.23;2.37;;;;;;;-144.73;75.81;54483.66;4972655;28;20108;-71
2023/03/27 00:54:41;;;;;;;16.20;2.77;;;;;;;-144.73;75.63;54477.47;4975412;28;20160;-71
2023/03/27 00:57:13;;;;;;;13.90;1.90;;;;;;;-144.73;75.76;54502.13;4989170;28;20053;-71
2023/03/27 00:59:41;;;;;;;11.02;1.88;;;;;;;-144.73;76.00;54428.22;4971709;28;20026;-70
2023/03/27 01:02:08;;;;;;;15.00;1.87;;;;;;;-144.73;76.45;54481.59;4972532;28;20034;-70
2023/03/27 01:04:36;;;;;;;7.30;1.40;;;;;;;-144.73;76.39;54477.47;4989291;28;20037;-70
2023/03/27 01:07:04;;;;;;;16.20;2.13;;;;;;;-144.73;76.30;54467.22;4989438;28;20038;-70
2023/03/27 01:09:30;;;;;;;12.50;1.83;;;;;;;-144.73;75.52;54489.81;4989353;28;20085;-70
2023/03/27 01:12:17;;;;;;;17.53;2.57;;;;;;;-144.73;76.11;54493.91;4972259;28;20117;-71
2023/03/27 01:15:01;;;;;;;15.60;1.90;;;;;;;-144.73;75.77;54477.47;4989439;28;20385;-70
2023/03/27 01:17:37;;;;;;;7.60;1.63;;;;;;;-144.73;75.81;54510.31;4972973;28;20042;-71
2023/03/27 01:20:13;;;;;;;16.00;2.60;;;;;;;-144.73;76.13;54461.06;4982818;28;20041;-70
2023/03/27 01:23:12;;;;;;;11.40;1.70;;;;;;;-144.73;76.34;54456.97;4989876;28;20027;-70
2023/03/27 01:25:56;;;;;;;18.87;1.70;;;;;;;-144.73;76.32;54465.16;4971242;28;20501;-70
2023/03/27 01:28:35;;;;;;;12.40;1.90;;;;;;;-144.73;76.80;54463.13;4989944;28;20035;-71
2023/03/27 01:31:29;;;;;;;11.80;2.40;;;;;;;-144.73;76.56;54481.59;4965494;28;20104;-71
2023/03/27 01:34:07;;;;;;;12.27;2.20;;;;;;;-144.73;77.34;54473.38;4987904;28;20037;-70
2023/03/27 01:37:05;;;;;;;14.30;2.07;;;;;;;-144.73;76.48;54436.44;4987716;28;20035;-71
2023/03/27 01:39:53;;;;;;;11.23;1.80;;;;;;;-144.73;77.04;54514.44;4985365;28;20054;-71
2023/03/27 01:42:45;;;;;;;11.77;1.80;;;;;;;-144.73;76.53;54465.16;4985436;28;20071;-70
2023/03/27 01:45:18;;;;;;;14.95;1.92;;;;;;;-144.73;76.21;54469.28;4983844;28;20050;-70
2023/03/27 01:47:54;;;;;;;18.73;2.13;;;;;;;-144.73;76.30;54415.91;4971884;28;20102;-70
2023/03/27 01:50:20;;;;;;;9.27;1.97;;;;;;;-144.73;76.08;54452.84;4984680;28;20030;-71
2023/03/27 01:52:52;;;;;;;12.83;2.20;;;;;;;-144.73;75.92;54489.81;4988438;28;20056;-70
2023/03/27 01:55:23;;;;;;;16.33;2.03;;;;;;;-144.73;75.93;54448.75;4988518;28;20048;-70
2023/03/27 01:57:59;;;;;;;13.07;1.77;;;;;;;-144.73;76.15;54489.81;4992241;28;20030;-70
2023/03/27 02:00:27;;;;;;;18.13;2.17;;;;;;;-144.73;75.83;54483.66;4992875;28;20044;-70
2023/03/27 02:02:58;;;;;;;15.10;1.90;;;;;;;-144.73;76.36;54493.91;4992683;28;20153;-70
2023/03/27 02:05:35;;;;;;;9.63;1.92;;;;;;;-144.73;76.75;54424.13;4982011;28;20026;-70
2023/03/27 02:08:10;;;;;;;10.10;1.63;;;;;;;-144.73;77.23;54436.44;4976124;28;20018;-70
2023/03/27 02:10:40;;;;;;;17.03;2.13;;;;;;;-144.73;78.05;54493.91;4991568;28;20034;-70
2023/03/27 02:13:20;;;;;;;10.87;1.70;;;;;;;-144.73;77.91;54489.81;4976173;28;20068;-71
2023/03/27 02:15:48;;;;;;;14.20;1.80;;;;;;;-144.73;78.05;54508.28;4975586;28;20046;-70
2023/03/27 02:18:19;;;;;;;14.93;2.07;;;;;;;-144.73;78.43;54487.75;5004243;28;20405;-71
2023/03/27 02:20:45;;;;;;;6.40;1.70;;;;;;;-144.73;79.08;54452.84;4974475;28;20030;-71
2023/03/27 02:23:11;;;;;;;13.90;2.23;;;;;;;-144.73;79.71;54454.91;4984468;28;20049;-71
2023/03/27 02:25:43;;;;;;;15.10;2.23;;;;;;;-144.73;79.63;54469.28;4982083;28;20109;-71
2023/03/27 02:28:21;;;;;;;;;;;;;;;-144.73;80.24;54444.66;4975573;28;20512;-71
2023/03/27 02:30:53;;;;;;;12.80;1.90;;;;;;;-144.73;80.72;54448.75;4990271;28;19914;-71
2023/03/27 02:33:36;;;;;;;12.23;2.10;;;;;;;-144.73;81.51;54481.59;4970965;28;20532;-71
2023/03/27 02:36:21;;;;;;;9.97;1.87;;;;;;;-144.73;82.39;54481.59;4990774;28;20041;-71
2023/03/27 02:39:22;;;;;;;18.90;2.83;;;;;;;-144.73;82.43;54485.69;4992025;28;20035;-71
2023/03/27 02:42:01;;;;;;;8.70;1.43;;;;;;;-144.73;82.91;54498.00;4961685;28;20057;-71
2023/03/27 02:44:50;;;;;;;9.40;2.07;;;;;;;-144.73;83.36;54489.81;4974555;28;20568;-71
2023/03/27 02:47:30;;;;;;;12.20;2.43;;;;;;;-144.73;83.26;54489.81;4969211;28;20034;-71
2023/03/27 02:50:04;;;;;;;15.67;2.00;;;;;;;-144.73;82.99;54465.16;4991349;28;20108;-71
2023/03/27 02:52:35;;;;;;;10.83;2.83;;;;;;;-144.73;83.30;54467.22;4982526;28;20121;-71
2023/03/27 02:55:08;;;;;;;15.32;2.97;;;;;;;-144.73;83.24;54444.66;4975127;28;20030;-71
2023/03/27 02:57:39;;;;;;;9.23;1.87;;;;;;;-144.73;82.90;54473.38;4974091;28;20077;-71
2023/03/27 03:00:12;;;;;;;13.85;1.75;;;;;;;-144.73;83.36;54465.16;4973774;28;20019;-71
2023/03/27 03:02:40;;;;;;;17.70;2.23;;;;;;;-144.73;83.73;54463.13;4974366;28;20026;-71
2023/03/27 03:05:09;;;;;;;13.60;2.20;;;;;;;-144.73;84.09;54473.38;4991042;28;20026;-71
2023/03/27 03:07:36;;;;;;;8.23;1.83;;;;;;;-144.73;84.25;54473.38;4978557;28;20058;-72
2023/03/27 03:10:04;;;;;;;18.13;3.20;;;;;;;-144.73;83.69;54479.53;4986726;28;20022;-72
2023/03/27 03:12:30;;;;;;;16.37;2.43;;;;;;;-144.73;83.51;54469.28;4991342;28;20034;-71
2023/03/27 03:14:55;;;;;;;6.67;1.60;;;;;;;-144.73;83.64;54485.69;4980691;28;20041;-72
2023/03/27 03:17:20;;;;;;;10.47;2.30;;;;;;;-144.73;83.85;54473.38;4975207;28;20038;-71
2023/03/27 03:19:47;;;;;;;15.43;2.33;;;;;;;-144.73;84.11;54469.28;4973905;28;20029;-72
2023/03/27 03:22:13;;;;;;;20.70;2.17;;;;;;;-144.73;83.85;54481.59;4974148;28;20036;-72
2023/03/27 03:24:40;;;;;;;11.20;1.97;;;;;;;-144.73;83.56;54461.06;4986884;28;20117;-71
2023/03/27 03:27:07;;;;;;;11.53;2.30;;;;;;;-144.73;83.09;54502.13;4990708;28;20069;-71
2023/03/27 03:29:35;;;;;;;13.60;2.40;;;;;;;-144.73;83.37;54477.47;4996599;28;20034;-72
2023/03/27 03:32:05;;;;;;;25.80;2.60;;;;;;;-144.73;83.93;54485.69;4968017;28;20034;-71
2023/03/27 03:34:32;;;;;;;14.10;2.13;;;;;;;-144.73;83.84;54465.16;4990265;28;20481;-71
2023/03/27 03:36:59;;;;;;;9.30;1.77;;;;;;;-144.73;83.74;54481.59;4991037;28;20031;-71
2023/03/27 03:39:24;;;;;;;16.83;2.63;;;;;;;-144.73;83.88;54485.69;4989502;28;20045;-71
2023/03/27 03:41:50;;;;;;;21.23;3.20;;;;;;;-144.73;83.61;54456.97;4973740;28;20057;-72
2023/03/27 03:44:16;;;;;;;24.43;2.77;;;;;;;-144.73;84.99;54467.22;4986754;28;20058;-72
2023/03/27 03:46:41;;;;;;;15.30;2.20;;;;;;;-144.73;86.13;54436.44;4971332;28;20035;-71
2023/03/27 03:49:07;;;;;;;22.33;2.63;;;;;;;-144.73;86.13;54461.06;4989766;28;20014;-71
2023/03/27 03:51:34;;;;;;;15.87;2.23;;;;;;;-144.73;86.75;54465.16;4991104;28;20030;-72
2023/03/27 03:54:00;;;;;;;15.27;2.17;;;;;;;-144.73;86.75;54477.47;4975290;28;20515;-71
2023/03/27 03:56:28;;;;;;;12.87;2.73;;;;;;;-144.73;86.60;54489.81;4989482;28;20057;-71
2023/03/27 03:58:54;;;;;;;22.70;2.97;;;;;;;-144.73;86.70;54477.47;4985957;28;20026;-71
2023/03/27 04:01:20;;;;;;;19.70;2.60;;;;;;;-144.73;87.60;54436.44;4973849;28;20043;-72
2023/03/27 04:03:46;;;;;;;13.30;2.30;;;;;;;-144.73;87.98;54456.97;4973877;28;20291;-71
2023/03/27 04:06:11;;;;;;;15.23;2.37;;;;;;;-144.73;87.38;54485.69;4989237;28;20026;-71
2023/03/27 04:08:37;;;;;;;17.90;2.73;;;;;;;-144.73;87.35;54426.16;4990942;28;20374;-71
2023/03/27 04:11:03;;;;;;;17.57;4.07;;;;;;;-144.73;87.91;54469.28;4988292;28;20026;-71
2023/03/27 04:13:29;;;;;;;13.20;2.33;;;;;;;-144.73;87.92;54510.31;4980416;28;20031;-71
2023/03/27 04:15:54;;;;;;;15.20;2.60;;;;;;;-144.73;87.83;54436.44;4989790;28;20110;-71
2023/03/27 04:18:20;;;;;;;15.50;2.57;;;;;;;-144.73;88.08;54469.28;4991021;28;20102;-71
2023/03/27 04:20:49;;;;;;;15.57;2.63;;;;;;;-144.73;88.25;54465.16;4974018;28;20074;-71
2023/03/27 04:23:17;;;;;;;13.37;2.33;;;;;;;-144.73;88.21;54489.81;4994555;28;20030;-71
2023/03/27 04:25:45;;;;;;;17.83;2.37;;;;;;;-144.73;88.62;54473.38;4972307;28;20030;-71
2023/03/27 04:28:15;;;;;;;24.70;3.40;;;;;;;-144.73;88.55;54469.28;4973056;28;20206;-71
2023/03/27 04:30:49;;;;;;;20.27;3.20;;;;;;;-144.73;89.56;54436.44;4972392;28;20093;-72
2023/03/27 04:33:17;;;;;;;15.83;3.70;;;;;;;-144.73;89.96;54452.84;4973132;28;20030;-71
2023/03/27 04:35:46;;;;;;;14.20;3.40;;;;;;;-144.73;90.18;54479.53;4976822;28;20033;-71
2023/03/27 04:38:13;;;;;;;24.33;4.57;;;;;;;-144.73;89.97;54440.53;4990651;28;20029;-71
2023/03/27 04:40:44;;;;;;;23.83;3.20;;;;;;;-144.73;90.22;54469.28;4989378;28;20030;-71
2023/03/27 04:43:10;;;;;;;;;;;;;;;-144.73;90.19;54489.81;4973745;28;20045;-72
2023/03/27 04:45:37;;;;;;;23.40;3.40;;;;;;;-144.73;90.33;54498.00;4972552;28;20397;-71
2023/03/27 04:48:02;;;;;;;20.13;2.87;;;;;;;-144.73;90.25;54502.13;4973805;28;20022;-71
2023/03/27 04:50:28;;;;;;;34.80;3.70;;;;;;;-144.73;90.11;54520.59;4990003;28;20038;-71
2023/03/27 04:52:57;;;;;;;24.83;4.43;;;;;;;-144.73;91.20;54465.16;4978840;28;20033;-71
2023/03/27 04:55:25;;;;;;;19.00;3.60;;;;;;;-144.73;91.55;54461.06;4968778;28;20042;-71
2023/03/27 04:57:52;;;;;;;33.63;12.33;;;;;;;-144.73;91.13;54475.44;4986231;28;20114;-71
2023/03/27 05:00:18;;;;;;;19.27;4.07;;;;;;;-144.73;91.65;54473.38;4990198;28;20038;-71
2023/03/27 05:02:45;;;;;;;22.73;4.53;;;;;;;-144.73;91.34;54485.69;4974735;28;20038;-71
2023/03/27 05:05:10;;;;;;;27.63;3.47;;;;;;;-144.73;91.61;54463.13;4989675;28;20046;-71
2023/03/27 05:07:36;;;;;;;20.27;3.50;;;;;;;-144.73;92.99;54461.06;4972452;28;20050;-71
2023/03/27 05:10:02;;;;;;;18.07;3.70;;;;;;;-144.73;93.38;54502.13;4988767;28;20026;-71
2023/03/27 05:12:28;;;;;;;34.97;3.37;;;;;;;-144.73;93.31;54469.28;4972034;28;20042;-71
2023/03/27 05:14:53;;;;;;;22.33;4.23;;;;;;;-144.73;92.96;54463.13;4972003;28;20030;-71
2023/03/27 05:17:19;;;;;;;15.17;2.90;;;;;;;-144.73;92.99;54487.75;4972250;28;20049;-71
2023/03/27 05:19:44;;;;;;;18.67;3.07;;;;;;;-144.73;93.62;54473.38;4971856;28;20030;-70
2023/03/27 05:22:10;;;;;;;19.97;3.17;;;;;;;-144.73;93.61;54493.91;4988772;28;20089;-70
2023/03/27 05:24:36;;;;;;;10.63;2.80;;;;;;;-144.73;93.21;54461.06;4989496;28;20023;-71
2023/03/27 05:27:02;;;;;;;16.80;3.43;;;;;;;-144.73;92.88;54461.06;4992870;28;20493;-70
2023/03/27 05:29:29;;;;;;;13.57;2.67;;;;;;;-144.73;93.67;54465.16;4985384;28;20106;-71
2023/03/27 05:31:54;;;;;;;17.70;3.30;;;;;;;-144.73;93.30;54473.38;4975786;28;20037;-71
2023/03/27 05:34:20;;;;;;;30.60;3.30;;;;;;;-144.73;92.79;54444.66;4978038;28;20022;-71
2023/03/27 05:36:46;;;;;;;15.57;3.30;;;;;;;-144.73;93.20;54465.16;4969926;28;20639;-72
2023/03/27 05:39:11;;;;;;;23.40;3.40;;;;;;;-144.73;93.29;54448.75;4992846;28;20117;-72
2023/03/27 05:41:37;;;;;;;18.27;2.90;;;;;;;-144.73;93.35;54489.81;4993294;28;20046;-72
2023/03/27 05:44:02;;;;;;;19.00;3.20;;;;;;;-144.73;92.74;54452.84;4976506;28;20380;-72
2023/03/27 05:46:28;;;;;;;14.93;2.70;;;;;;;-144.73;92.94;54498.00;4975156;28;20042;-72
2023/03/27 05:48:53;;;;;;;15.87;4.00;;;;;;;-144.73;92.55;54473.38;4976111;28;20031;-72
2023/03/27 05:51:19;;;;;;;19.27;2.67;;;;;;;-144.73;92.86;54485.69;4993381;28;20038;-72
2023/03/27 05:53:44;;;;;;;9.77;2.67;;;;;;;-144.73;92.22;54485.69;4993464;28;20045;-72
2023/03/27 05:56:10;;;;;;;13.07;2.90;;;;;;;-144.73;92.88;54438.50;4974497;28;20030;-71
2023/03/27 05:58:38;;;;;;;16.37;4.00;;;;;;;-144.73;93.12;54493.91;4975606;28;20470;-72
2023/03/27 06:01:04;;;;;;;23.17;2.93;;;;;;;-144.73;92.26;54475.44;4992031;28;20034;-72
2023/03/27 06:03:30;;;;;;;23.50;3.17;;;;;;;-144.73;92.49;54495.97;4993191;28;20061;-72
2023/03/27 06:05:58;;;;;;;10.17;2.27;;;;;;;-144.73;92.37;54485.69;4993978;28;20062;-72
2023/03/27 06:08:25;;;;;;;15.67;2.87;;;;;;;-144.73;91.98;54448.75;4992777;28;20108;-72
2023/03/27 06:10:51;;;;;;;25.57;3.03;;;;;;;-144.73;92.02;54473.38;4989620;28;20033;-72
2023/03/27 06:13:20;;;;;;;15.13;3.00;;;;;;;-144.73;91.80;54450.81;4969625;28;20023;-72
2023/03/27 06:15:46;;;;;;;13.40;2.83;;;;;;;-144.73;91.93;54506.22;4988736;28;20037;-72
2023/03/27 06:18:11;;;;;;;22.47;3.30;;;;;;;-144.73;91.11;54493.91;4975218;28;20034;-72
2023/03/27 06:20:37;;;;;;;16.83;2.67;;;;;;;-144.73;91.85;54473.38;4991691;28;20034;-71
2023/03/27 06:23:05;;;;;;;16.10;2.90;;;;;;;-144.73;91.61;54489.81;4992828;28;20100;-72
2023/03/27 06:25:32;;;;;;;22.90;3.40;;;;;;;-144.73;91.77;54477.47;4974354;28;20056;-72
2023/03/27 06:27:58;;;;;;;12.43;2.63;;;;;;;-144.73;91.70;54469.28;4974929;28;20046;-72
2023/03/27 06:30:24;;;;;;;16.07;3.23;;;;;;;-144.73;91.57;54473.38;4981411;28;20118;-71
2023/03/27 06:32:58;;;;;;;21.43;2.57;;;;;;;-144.73;91.18;54483.66;4992606;28;20022;-71
2023/03/27 06:35:27;;;;;;;16.13;3.23;;;;;;;-144.73;90.72;54493.91;4991751;28;20035;-72
2023/03/27 06:37:54;;;;;;;18.50;3.93;;;;;;;-144.73;90.65;54481.59;4985175;28;20014;-72
2023/03/27 06:40:23;;;;;;;20.97;3.00;;;;;;;-144.73;90.84;54473.38;4974433;28;20038;-71
2023/03/27 06:42:57;;;;;;;15.43;2.90;;;;;;;-144.73;89.99;54461.06;4974242;28;20027;-72
2023/03/27 06:45:26;;;;;;;26.20;3.80;;;;;;;-144.73;89.83;54479.53;4992096;28;20034;-71
2023/03/27 06:47:54;;;;;;;19.30;3.67;;;;;;;-144.73;89.74;54489.81;4968645;28;20026;-71
2023/03/27 06:50:20;;;;;;;11.53;2.63;;;;;;;-144.73;88.98;54502.13;4985801;28;20034;-71
2023/03/27 06:52:49;;;;;;;15.27;3.83;;;;;;;-144.73;88.31;54467.22;4980128;28;20022;-71
2023/03/27 06:55:16;;;;;;;28.37;3.27;;;;;;;-144.73;88.07;54483.66;4985248;28;20034;-71
2023/03/27 06:57:48;;;;;;;19.95;3.20;;;;;;;-144.73;87.93;54481.59;4958584;28;20050;-71
2023/03/27 07:00:18;;;;;;;20.83;3.00;;;;;;;-144.73;88.08;54456.97;4982408;28;20036;-70
2023/03/27 07:03:04;;;;;;;14.35;2.80;;;;;;;-144.73;89.42;54483.66;4967125;28;20061;-71
2023/03/27 07:05:41;;;;;;;15.52;3.53;;;;;;;-144.73;93.44;54473.38;4964487;28;20046;-70
2023/03/27 07:08:12;;;;;;;19.33;5.30;;;;;;;-144.73;95.03;54452.84;4991597;28;20037;-70
2023/03/27 07:10:38;;;;;;;14.82;2.60;;;;;;;-144.73;95.47;54530.84;4974539;28;20048;-70
2023/03/27 07:13:05;;;;;;;14.83;2.70;;;;;;;-144.73;96.42;54473.38;4972832;28;20018;-70
2023/03/27 07:15:31;;;;;;;17.20;3.20;;;;;;;-144.73;95.80;54489.81;4964853;28;20042;-70
2023/03/27 07:17:58;;;;;;;12.23;3.10;;;;;;;-144.73;96.45;54485.69;4974019;28;20038;-70
2023/03/27 07:20:26;;;;;;;13.53;2.87;;;;;;;-144.73;96.70;54481.59;4968866;28;20093;-70
2023/03/27 07:22:56;;;;;;;13.43;3.20;;;;;;;-144.73;96.90;54448.75;4991581;28;20477;-70
2023/03/27 07:25:27;;;;;;;14.10;2.80;;;;;;;-144.73;97.09;54477.47;4971331;28;20216;-69
2023/03/27 07:27:59;;;;;;;12.73;3.10;;;;;;;-144.73;95.95;54502.13;4970289;28;20094;-70
2023/03/27 07:30:24;;;;;;;14.80;3.53;;;;;;;-144.73;95.87;54473.38;4975494;28;20034;-71
2023/03/27 07:32:53;;;;;;;10.60;2.53;;;;;;;-144.73;96.17;54440.53;4971390;28;20081;-71
2023/03/27 07:35:18;;;;;;;9.97;2.77;;;;;;;-144.73;95.90;54469.28;4970959;28;20030;-70
2023/03/27 07:37:44;;;;;;;13.37;3.27;;;;;;;-144.73;94.56;54444.66;4986754;28;20048;-70
2023/03/27 07:40:12;;;;;;;10.87;2.80;;;;;;;-144.73;94.50;54465.16;4971136;28;20018;-70
2023/03/27 07:42:38;;;;;;;11.27;3.00;;;;;;;-144.73;93.30;54473.38;4974377;28;20125;-70
2023/03/27 07:45:03;;;;;;;11.40;2.45;;;;;;;-144.73;91.29;54477.47;4969231;28;20114;-70
2023/03/27 07:47:29;;;;;;;8.63;2.67;;;;;;;-144.73;91.26;54477.47;4968920;28;20108;-70
2023/03/27 07:49:54;;;;;;;13.18;3.53;;;;;;;-144.73;91.05;54461.06;4992450;28;20018;-70
2023/03/27 07:52:20;;;;;;;18.83;2.83;;;;;;;-144.73;89.46;54465.16;4987028;28;20031;-71
2023/03/27 07:54:47;;;;;;;19.02;2.80;;;;;;;-144.73;88.79;54465.16;4976308;28;20049;-69
2023/03/27 07:57:14;;;;;;;9.32;2.00;;;;;;;-144.73;87.30;54444.66;4986241;28;20045;-70
2023/03/27 07:59:40;;;;;;;8.75;2.35;;;;;;;-144.73;86.17;54485.69;4969559;28;20030;-70
2023/03/27 08:02:06;;;;;;;11.95;3.08;;;;;;;-144.73;85.35;54465.16;4971223;28;20038;-69
2023/03/27 08:04:31;;;;;;;7.28;2.08;;;;;;;-144.73;85.25;54465.16;4987089;28;20030;-71
2023/03/27 08:06:57;;;;;;;11.15;2.13;;;;;;;-144.73;85.26;54477.47;4971769;28;20050;-71
2023/03/27 08:09:22;;;;;;;7.53;1.67;;;;;;;-144.73;84.50;54456.97;4986086;28;20528;-70
2023/03/27 08:11:49;;;;;;;9.57;2.00;;;;;;;-144.73;82.89;54428.22;4985837;28;20045;-70
2023/03/27 08:14:18;;;;;;;16.60;2.20;;;;;;;-144.73;82.75;54481.59;4975568;28;20053;-70
2023/03/27 08:16:44;;;;;;;8.00;2.10;;;;;;;-144.73;79.81;54436.44;4989983;28;20089;-70
2023/03/27 08:19:10;;;;;;;10.38;2.33;;;;;;;-144.73;81.13;54428.22;4956186;28;20027;-70
2023/03/27 08:21:37;;;;;;;16.45;2.30;;;;;;;-144.73;79.71;54448.75;4970915;28;20027;-71
2023/03/27 08:24:03;;;;;;;11.05;1.60;;;;;;;-144.73;78.73;54446.69;4976972;28;20027;-71
2023/03/27 08:26:31;;;;;;;6.20;1.42;;;;;;;-144.73;77.52;54440.53;4987297;28;20034;-71
2023/03/27 08:28:57;;;;;;;12.80;1.70;;;;;;;-144.73;76.67;54479.53;4977536;28;20022;-71
2023/03/27 08:31:24;;;;;;;7.55;1.55;;;;;;;-144.73;77.05;54432.31;4978499;28;20031;-70
2023/03/27 08:33:50;;;;;;;12.43;2.35;;;;;;;-144.73;75.44;54440.53;4988183;28;20037;-71
2023/03/27 08:36:15;;;;;;;8.90;1.40;;;;;;;-144.73;75.70;54465.16;4986768;28;20038;-72
2023/03/27 08:38:41;;;;;;;11.15;2.50;;;;;;;-144.73;73.43;54420.00;4970035;28;20026;-71
2023/03/27 08:41:23;;;;;;;6.70;1.58;;;;;;;-144.73;74.52;54473.38;4971983;28;20125;-70
2023/03/27 08:43:49;;;;;;;10.82;1.67;;;;;;;-144.73;74.19;54485.69;4984458;28;20030;-70
2023/03/27 08:46:30;;;;;;;6.93;1.65;;;;;;;-144.73;72.48;54506.22;4969337;28;20037;-70
2023/03/27 08:48:57;;;;;;;7.10;2.00;;;;;;;-144.73;73.38;54440.53;4974696;28;20030;-70
2023/03/27 08:51:52;;;;;;;19.00;1.40;;;;;;;-144.73;73.46;54493.91;4991379;28;20042;-71
2023/03/27 08:54:27;;;;;;;11.93;1.67;;;;;;;-144.73;73.66;54469.28;4988355;28;20030;-71
2023/03/27 08:56:53;;;;;;;6.93;1.40;;;;;;;-144.73;75.80;54456.97;4965320;28;20039;-70
2023/03/27 08:59:21;;;;;;;12.23;1.98;;;;;;;-144.73;73.74;54473.38;4971949;28;20022;-70
2023/03/27 09:01:57;;;;;;;4.82;1.27;;;;;;;-144.73;73.23;54456.97;4973106;28;20174;-71
2023/03/27 09:04:36;;;;;;;9.25;1.55;;;;;;;-144.73;70.93;54461.06;4970750;28;20065;-71
2023/03/27 09:07:01;;;;;;;10.15;2.03;;;;;;;-144.73;70.56;54469.28;4977131;28;20038;-71
2023/03/27 09:09:51;;;;;;;9.57;2.20;;;;;;;-144.73;71.22;54452.84;4984555;28;20038;-70
2023/03/27 09:12:48;;;;;;;14.10;3.25;;;;;;;-144.73;69.89;54436.44;4967865;28;20073;-71
2023/03/27 09:15:20;;;;;;;11.25;1.52;;;;;;;-144.73;68.60;54448.75;4967231;28;20030;-71
2023/03/27 09:18:05;;;;;;;16.05;1.65;;;;;;;-144.73;69.80;54426.16;4975946;28;20037;-71
2023/03/27 09:20:42;;;;;;;17.55;2.22;;;;;;;-144.73;66.88;54420.00;4961681;28;20053;-71
2023/03/27 09:23:32;;;;;;;12.52;1.55;;;;;;;-144.73;67.19;54454.91;4966479;28;20251;-71
2023/03/27 09:26:10;;;;;;;9.48;1.70;;;;;;;-144.73;66.82;54498.00;4985872;28;20041;-71
2023/03/27 09:28:49;;;;;;;9.93;1.58;;;;;;;-144.73;66.51;54483.66;4968237;28;20034;-71
2023/03/27 09:31:30;;;;;;;15.10;1.90;;;;;;;-144.73;66.30;54461.06;4968473;28;20030;-71
2023/03/27 09:33:58;;;;;;;14.18;2.42;;;;;;;-144.73;66.32;54473.38;4968314;28;20105;-71
2023/03/27 09:36:24;;;;;;;13.40;1.67;;;;;;;-144.73;64.59;54440.53;4966797;28;20042;-71
2023/03/27 09:38:52;;;;;;;15.05;2.28;;;;;;;-144.73;65.32;54473.38;4967866;28;20034;-71
2023/03/27 09:41:28;;;;;;;8.40;1.50;;;;;;;-144.73;68.13;54411.81;4983159;28;20049;-70
2023/03/27 09:43:58;;;;;;;8.23;1.40;;;;;;;-144.73;67.88;54407.69;4982663;28;20413;-71
2023/03/27 09:46:26;;;;;;;8.38;1.48;;;;;;;-144.73;65.93;54420.00;4966729;28;20042;-71
2023/03/27 09:48:55;;;;;;;13.77;2.97;;;;;;;-144.73;66.75;54415.91;4973545;28;20072;-71
2023/03/27 09:51:39;;;;;;;15.25;1.30;;;;;;;-144.73;66.36;54456.97;4963446;28;20034;-71
2023/03/27 09:54:06;;;;;;;22.08;2.97;;;;;;;-144.73;67.71;54477.47;4970173;28;20045;-71
2023/03/27 09:56:40;;;;;;;18.92;2.65;;;;;;;-144.73;66.22;54432.31;4971880;28;20119;-71
2023/03/27 09:59:23;;;;;;;6.28;1.85;;;;;;;-144.73;67.46;54420.00;4968426;28;20042;-70
2023/03/27 10:01:51;;;;;;;4.93;1.55;;;;;;;-144.73;64.95;54448.75;4994579;28;20077;-70
2023/03/27 10:04:22;;;;;;;17.13;1.77;;;;;;;-144.73;65.66;54422.06;4971824;28;20057;-71
2023/03/27 10:07:19;;;;;;;4.93;1.13;;;;;;;-144.73;63.87;54432.31;4968208;28;20054;-71
2023/03/27 10:10:02;;;;;;;8.82;1.70;;;;;;;-144.73;66.86;54481.59;4979349;28;20114;-71
2023/03/27 10:12:28;;;;;;;9.27;1.52;;;;;;;-144.73;66.37;54452.84;4965495;28;20100;-71
2023/03/27 10:14:54;;;;;;;7.95;1.33;;;;;;;-144.73;64.97;54424.13;4985139;28;20030;-71
2023/03/27 10:17:48;;;;;;;6.75;1.58;;;;;;;-144.73;64.64;54424.13;4966525;28;20089;-72
2023/03/27 10:20:17;;;;;;;6.50;1.50;;;;;;;-144.73;59.72;54415.91;4969321;28;20088;-72
2023/03/27 10:22:55;;;;;;;6.78;1.65;;;;;;;-144.73;61.63;54465.16;4969930;28;20100;-71
2023/03/27 10:25:28;;;;;;;8.63;1.70;;;;;;;-144.73;62.54;54463.13;4986291;28;20037;-71
2023/03/27 10:28:15;;;;;;;14.60;1.70;;;;;;;-144.73;63.34;54461.06;4982848;28;20064;-71
2023/03/27 10:30:41;;;;;;;7.65;1.40;;;;;;;-144.73;63.44;54444.66;4969821;28;20030;-72
2023/03/27 10:33:06;;;;;;;4.72;1.23;;;;;;;-144.73;63.73;54456.97;4968559;28;20026;-71
2023/03/27 10:35:38;;;;;;;7.07;1.50;;;;;;;-144.73;65.06;54444.66;4969509;28;20042;-71
2023/03/27 10:38:11;;;;;;;;;;;;;;;-144.73;65.88;54469.28;4986949;28;20049;-71
2023/03/27 10:40:38;;;;;;;10.82;1.27;;;;;;;-144.73;68.78;54444.66;4971362;28;19960;-72
2023/03/27 10:43:09;;;;;;;7.13;1.33;;;;;;;-144.73;74.38;54440.53;4975622;28;20139;-71
2023/03/27 10:45:46;;;;;;;8.88;1.50;;;;;;;-144.73;84.03;54448.75;4974549;28;20038;-71
2023/03/27 10:48:32;;;;;;;5.90;1.23;;;;;;;-144.73;91.26;54461.06;4975971;28;20038;-71
2023/03/27 10:51:03;;;;;;;13.37;1.40;;;;;;;-144.73;96.46;54461.06;4986701;28;20109;-71
2023/03/27 10:53:36;;;;;;;9.02;1.52;;;;;;;-144.73;99.19;54469.28;4969228;28;20054;-72
2023/03/27 10:56:15;;;;;;;3.17;0.97;;;;;;;-144.73;100.00;54461.06;4987971;28;20096;-71
2023/03/27 10:58:58;;;;;;;8.53;1.10;;;;;;;-144.73;100.00;54438.50;4981641;28;20027;-71
2023/03/27 11:01:30;;;;;;;3.70;2.10;;;;;;;-144.73;100.00;54444.66;4979750;28;20027;-71
2023/03/27 11:04:22;;;;;;;4.17;1.10;;;;;;;-144.73;100.00;54448.75;4992614;28;20129;-71
2023/03/27 11:06:49;;;;;;;5.70;1.15;;;;;;;-144.73;100.00;54448.75;4969659;28;20117;-71
2023/03/27 11:09:22;;;;;;;3.43;0.90;;;;;;;-144.73;100.00;54440.53;4984271;28;20476;-72
2023/03/27 11:11:54;;;;;;;2.83;1.00;;;;;;;-144.73;100.00;54428.22;4968508;28;20038;-72
2023/03/27 11:14:41;;;;;;;2.33;0.93;;;;;;;-144.73;99.52;54430.28;4984024;28;20026;-72
2023/03/27 11:17:07;;;;;;;6.43;1.02;;;;;;;-144.73;99.02;54485.69;4967864;28;20027;-72
2023/03/27 11:19:43;;;;;;;6.00;1.10;;;;;;;-144.73;98.18;54463.13;4984809;28;20072;-73
2023/03/27 11:22:37;;;;;;;11.90;1.90;;;;;;;-144.73;95.51;54420.00;4967096;28;20118;-73
2023/03/27 11:25:12;;;;;;;9.55;1.25;;;;;;;-144.73;91.96;54424.13;4984262;28;20042;-72
2023/03/27 11:28:23;;;;;;;3.63;1.15;;;;;;;-144.73;92.20;54477.47;4988151;28;20026;-72